sensor_id;sensor_type;location;lat;lon;timestamp;pressure;altitude;pressure_sealevel;temperature;humidity
75521;BME280;64102;48.628;9.002;2024-03-02T00:02:07;94843.78;;;2.61;100.00
75521;BME280;64102;48.628;9.002;2024-03-02T00:04:33;94849.53;;;2.63;100.00
75521;BME280;64102;48.628;9.002;2024-03-02T00:06:58;94842.50;;;2.88;100.00
75521;BME280;64102;48.628;9.002;2024-03-02T00:09:24;94844.03;;;3.11;100.00
75521;BME280;64102;48.628;9.002;2024-03-02T00:11:50;94840.44;;;3.34;100.00
75521;BME280;64102;48.628;9.002;2024-03-02T00:14:16;94838.31;;;3.70;100.00
75521;BME280;64102;48.628;9.002;2024-03-02T00:16:42;94840.72;;;3.71;100.00
75521;BME280;64102;48.628;9.002;2024-03-02T00:19:08;94847.75;;;3.79;100.00
75521;BME280;64102;48.628;9.002;2024-03-02T00:21:34;94843.91;;;3.94;100.00
75521;BME280;64102;48.628;9.002;2024-03-02T00:24:00;94846.66;;;4.12;100.00
75521;BME280;64102;48.628;9.002;2024-03-02T00:26:27;94843.31;;;4.21;100.00
75521;BME280;64102;48.628;9.002;2024-03-02T00:28:56;94845.63;;;4.24;100.00
75521;BME280;64102;48.628;9.002;2024-03-02T00:31:22;94842.66;;;4.19;100.00
75521;BME280;64102;48.628;9.002;2024-03-02T00:33:48;94847.19;;;4.15;100.00
75521;BME280;64102;48.628;9.002;2024-03-02T00:36:15;94833.09;;;4.11;100.00
75521;BME280;64102;48.628;9.002;2024-03-02T00:38:49;94837.78;;;4.06;100.00
75521;BME280;64102;48.628;9.002;2024-03-02T00:41:27;94837.53;;;4.09;100.00
75521;BME280;64102;48.628;9.002;2024-03-02T00:44:05;94834.44;;;4.15;100.00
75521;BME280;64102;48.628;9.002;2024-03-02T00:46:35;94836.47;;;4.21;100.00
75521;BME280;64102;48.628;9.002;2024-03-02T00:49:23;94844.25;;;4.20;100.00
75521;BME280;64102;48.628;9.002;2024-03-02T00:51:49;94837.56;;;4.19;100.00
75521;BME280;64102;48.628;9.002;2024-03-02T00:54:19;94839.34;;;4.28;100.00
75521;BME280;64102;48.628;9.002;2024-03-02T00:56:46;94842.00;;;4.26;100.00
75521;BME280;64102;48.628;9.002;2024-03-02T00:59:12;94837.97;;;4.24;100.00
75521;BME280;64102;48.628;9.002;2024-03-02T01:01:37;94841.88;;;4.28;100.00
75521;BME280;64102;48.628;9.002;2024-03-02T01:04:03;94848.03;;;4.25;100.00
75521;BME280;64102;48.628;9.002;2024-03-02T01:06:29;94841.06;;;4.27;100.00
75521;BME280;64102;48.628;9.002;2024-03-02T01:08:55;94844.81;;;4.23;100.00
75521;BME280;64102;48.628;9.002;2024-03-02T01:11:20;94844.25;;;4.20;100.00
75521;BME280;64102;48.628;9.002;2024-03-02T01:13:48;94840.22;;;4.17;100.00
75521;BME280;64102;48.628;9.002;2024-03-02T01:16:14;94833.50;;;4.16;100.00
75521;BME280;64102;48.628;9.002;2024-03-02T01:18:41;94832.06;;;4.23;100.00
75521;BME280;64102;48.628;9.002;2024-03-02T01:21:06;94826.53;;;4.18;100.00
75521;BME280;64102;48.628;9.002;2024-03-02T01:23:32;94833.00;;;4.22;100.00
75521;BME280;64102;48.628;9.002;2024-03-02T01:25:57;94835.00;;;4.19;100.00
75521;BME280;64102;48.628;9.002;2024-03-02T01:28:23;94831.38;;;4.21;100.00
75521;BME280;64102;48.628;9.002;2024-03-02T01:30:48;94830.03;;;4.17;100.00
75521;BME280;64102;48.628;9.002;2024-03-02T01:33:14;94831.22;;;4.13;100.00
75521;BME280;64102;48.628;9.002;2024-03-02T01:35:40;94824.38;;;4.14;100.00
75521;BME280;64102;48.628;9.002;2024-03-02T01:38:05;94831.50;;;4.10;100.00
75521;BME280;64102;48.628;9.002;2024-03-02T01:40:37;94830.13;;;4.16;100.00
75521;BME280;64102;48.628;9.002;2024-03-02T01:43:06;94827.03;;;4.12;100.00
75521;BME280;64102;48.628;9.002;2024-03-02T01:45:32;94824.91;;;4.17;100.00
75521;BME280;64102;48.628;9.002;2024-03-02T01:47:58;94825.34;;;4.22;100.00
75521;BME280;64102;48.628;9.002;2024-03-02T01:50:28;94825.72;;;4.18;100.00
75521;BME280;64102;48.628;9.002;2024-03-02T01:52:55;94815.00;;;4.24;100.00
75521;BME280;64102;48.628;9.002;2024-03-02T01:55:20;94821.72;;;4.34;100.00
75521;BME280;64102;48.628;9.002;2024-03-02T01:57:46;94813.41;;;4.32;100.00
75521;BME280;64102;48.628;9.002;2024-03-02T02:00:13;94806.25;;;4.26;100.00
75521;BME280;64102;48.628;9.002;2024-03-02T02:02:38;94809.75;;;4.25;100.00
75521;BME280;64102;48.628;9.002;2024-03-02T02:05:04;94809.75;;;4.25;100.00
75521;BME280;64102;48.628;9.002;2024-03-02T02:07:29;94805.56;;;4.24;100.00
75521;BME280;64102;48.628;9.002;2024-03-02T02:09:55;94814.59;;;4.28;100.00
75521;BME280;64102;48.628;9.002;2024-03-02T02:12:21;94815.13;;;4.22;100.00
75521;BME280;64102;48.628;9.002;2024-03-02T02:14:49;94825.84;;;4.16;100.00
75521;BME280;64102;48.628;9.002;2024-03-02T02:17:18;94816.28;;;4.09;100.00
75521;BME280;64102;48.628;9.002;2024-03-02T02:19:43;94821.50;;;3.97;100.00
75521;BME280;64102;48.628;9.002;2024-03-02T02:22:10;94825.91;;;3.86;100.00
75521;BME280;64102;48.628;9.002;2024-03-02T02:24:35;94820.66;;;3.87;100.00
75521;BME280;64102;48.628;9.002;2024-03-02T02:27:00;94816.88;;;3.82;100.00
75521;BME280;64102;48.628;9.002;2024-03-02T02:29:26;94808.41;;;3.81;100.00
75521;BME280;64102;48.628;9.002;2024-03-02T02:31:52;94813.88;;;3.67;100.00
75521;BME280;64102;48.628;9.002;2024-03-02T02:34:17;94803.28;;;3.72;100.00
75521;BME280;64102;48.628;9.002;2024-03-02T02:36:43;94802.28;;;3.84;100.00
75521;BME280;64102;48.628;9.002;2024-03-02T02:39:13;94789.78;;;3.90;100.00
75521;BME280;64102;48.628;9.002;2024-03-02T02:41:39;94791.78;;;3.87;100.00
75521;BME280;64102;48.628;9.002;2024-03-02T02:44:04;94786.00;;;3.85;100.00
75521;BME280;64102;48.628;9.002;2024-03-02T02:46:30;94772.50;;;4.03;100.00
75521;BME280;64102;48.628;9.002;2024-03-02T02:48:55;94781.66;;;4.06;100.00
75521;BME280;64102;48.628;9.002;2024-03-02T02:51:21;94777.06;;;4.10;100.00
75521;BME280;64102;48.628;9.002;2024-03-02T02:53:46;94778.28;;;4.15;100.00
75521;BME280;64102;48.628;9.002;2024-03-02T02:56:11;94790.41;;;4.23;100.00
75521;BME280;64102;48.628;9.002;2024-03-02T02:58:37;94788.66;;;4.23;100.00
75521;BME280;64102;48.628;9.002;2024-03-02T03:01:03;94787.97;;;4.21;100.00
75521;BME280;64102;48.628;9.002;2024-03-02T03:03:29;94786.50;;;4.19;100.00
75521;BME280;64102;48.628;9.002;2024-03-02T03:05:54;94787.81;;;4.13;100.00
75521;BME280;64102;48.628;9.002;2024-03-02T03:08:19;94791.16;;;4.04;100.00
75521;BME280;64102;48.628;9.002;2024-03-02T03:10:45;94791.03;;;4.05;100.00
75521;BME280;64102;48.628;9.002;2024-03-02T03:13:10;94785.16;;;4.15;100.00
75521;BME280;64102;48.628;9.002;2024-03-02T03:15:36;94779.66;;;4.19;100.00
75521;BME280;64102;48.628;9.002;2024-03-02T03:18:02;94790.66;;;4.10;100.00
75521;BME280;64102;48.628;9.002;2024-03-02T03:20:29;94782.44;;;4.16;100.00
75521;BME280;64102;48.628;9.002;2024-03-02T03:22:55;94785.53;;;4.20;100.00
75521;BME280;64102;48.628;9.002;2024-03-02T03:25:21;94786.63;;;4.17;100.00
75521;BME280;64102;48.628;9.002;2024-03-02T03:27:46;94774.69;;;4.27;100.00
75521;BME280;64102;48.628;9.002;2024-03-02T03:30:12;94778.72;;;4.30;100.00
75521;BME280;64102;48.628;9.002;2024-03-02T03:32:37;94781.13;;;4.31;100.00
75521;BME280;64102;48.628;9.002;2024-03-02T03:35:03;94779.53;;;4.49;100.00
75521;BME280;64102;48.628;9.002;2024-03-02T03:37:29;94781.28;;;4.49;100.00
75521;BME280;64102;48.628;9.002;2024-03-02T03:40:01;94790.84;;;4.57;100.00
75521;BME280;64102;48.628;9.002;2024-03-02T03:42:27;94786.00;;;4.54;100.00
75521;BME280;64102;48.628;9.002;2024-03-02T03:44:52;94783.03;;;4.48;100.00
75521;BME280;64102;48.628;9.002;2024-03-02T03:47:17;94786.53;;;4.47;100.00
75521;BME280;64102;48.628;9.002;2024-03-02T03:49:43;94798.06;;;4.42;100.00
75521;BME280;64102;48.628;9.002;2024-03-02T03:52:08;94793.63;;;4.34;100.00
75521;BME280;64102;48.628;9.002;2024-03-02T03:54:33;94796.47;;;4.31;100.00
75521;BME280;64102;48.628;9.002;2024-03-02T03:56:59;94789.19;;;4.27;100.00
75521;BME280;64102;48.628;9.002;2024-03-02T03:59:24;94789.19;;;4.27;100.00
75521;BME280;64102;48.628;9.002;2024-03-02T04:01:49;94782.06;;;4.21;100.00
75521;BME280;64102;48.628;9.002;2024-03-02T04:04:15;94785.94;;;4.15;100.00
75521;BME280;64102;48.628;9.002;2024-03-02T04:06:40;94776.69;;;4.14;100.00
75521;BME280;64102;48.628;9.002;2024-03-02T04:09:06;94778.81;;;4.09;100.00
75521;BME280;64102;48.628;9.002;2024-03-02T04:11:31;94776.53;;;4.06;100.00
75521;BME280;64102;48.628;9.002;2024-03-02T04:13:57;94780.25;;;4.02;100.00
75521;BME280;64102;48.628;9.002;2024-03-02T04:16:22;94790.88;;;3.97;100.00
75521;BME280;64102;48.628;9.002;2024-03-02T04:18:48;94789.50;;;3.93;100.00
75521;BME280;64102;48.628;9.002;2024-03-02T04:21:13;94800.09;;;3.89;100.00
75521;BME280;64102;48.628;9.002;2024-03-02T04:23:38;94794.63;;;3.84;100.00
75521;BME280;64102;48.628;9.002;2024-03-02T04:26:04;94799.69;;;3.74;100.00
75521;BME280;64102;48.628;9.002;2024-03-02T04:28:29;94798.56;;;3.67;100.00
75521;BME280;64102;48.628;9.002;2024-03-02T04:30:54;94801.16;;;3.46;100.00
75521;BME280;64102;48.628;9.002;2024-03-02T04:33:20;94800.81;;;3.30;100.00
75521;BME280;64102;48.628;9.002;2024-03-02T04:35:45;94815.00;;;3.02;100.00
75521;BME280;64102;48.628;9.002;2024-03-02T04:38:11;94806.03;;;2.87;100.00
75521;BME280;64102;48.628;9.002;2024-03-02T04:40:37;94804.09;;;2.59;100.00
75521;BME280;64102;48.628;9.002;2024-03-02T04:43:02;94797.28;;;2.48;100.00
75521;BME280;64102;48.628;9.002;2024-03-02T04:45:28;94803.88;;;2.51;100.00
75521;BME280;64102;48.628;9.002;2024-03-02T04:47:54;94805.91;;;2.36;100.00
75521;BME280;64102;48.628;9.002;2024-03-02T04:50:19;94796.66;;;2.24;100.00
75521;BME280;64102;48.628;9.002;2024-03-02T04:52:45;94804.34;;;2.13;100.00
75521;BME280;64102;48.628;9.002;2024-03-02T04:55:10;94803.78;;;2.09;100.00
75521;BME280;64102;48.628;9.002;2024-03-02T04:57:50;94806.22;;;1.89;100.00
75521;BME280;64102;48.628;9.002;2024-03-02T05:00:16;94806.78;;;2.03;100.00
75521;BME280;64102;48.628;9.002;2024-03-02T05:02:42;94811.06;;;2.03;100.00
75521;BME280;64102;48.628;9.002;2024-03-02T05:05:07;94802.28;;;1.85;100.00
75521;BME280;64102;48.628;9.002;2024-03-02T05:07:33;94809.13;;;1.84;100.00
75521;BME280;64102;48.628;9.002;2024-03-02T05:09:58;94802.78;;;1.78;100.00
75521;BME280;64102;48.628;9.002;2024-03-02T05:12:24;94813.66;;;1.58;100.00
75521;BME280;64102;48.628;9.002;2024-03-02T05:15:07;94813.53;;;1.49;100.00
75521;BME280;64102;48.628;9.002;2024-03-02T05:17:35;94808.78;;;1.44;100.00
75521;BME280;64102;48.628;9.002;2024-03-02T05:20:00;94808.78;;;1.33;100.00
75521;BME280;64102;48.628;9.002;2024-03-02T05:22:25;94819.16;;;1.30;100.00
75521;BME280;64102;48.628;9.002;2024-03-02T05:24:51;94820.31;;;1.15;100.00
75521;BME280;64102;48.628;9.002;2024-03-02T05:27:16;94821.25;;;1.25;100.00
75521;BME280;64102;48.628;9.002;2024-03-02T05:29:41;94821.25;;;1.25;100.00
75521;BME280;64102;48.628;9.002;2024-03-02T05:32:07;94816.66;;;1.41;100.00
75521;BME280;64102;48.628;9.002;2024-03-02T05:34:32;94825.91;;;1.64;100.00
75521;BME280;64102;48.628;9.002;2024-03-02T05:37:00;94824.59;;;2.03;100.00
75521;BME280;64102;48.628;9.002;2024-03-02T05:39:25;94827.03;;;2.05;100.00
75521;BME280;64102;48.628;9.002;2024-03-02T05:41:51;94818.91;;;2.22;100.00
75521;BME280;64102;48.628;9.002;2024-03-02T05:44:16;94823.28;;;2.20;100.00
75521;BME280;64102;48.628;9.002;2024-03-02T05:46:43;94823.19;;;2.10;100.00
75521;BME280;64102;48.628;9.002;2024-03-02T05:49:09;94837.78;;;2.08;100.00
75521;BME280;64102;48.628;9.002;2024-03-02T05:51:35;94830.25;;;2.07;100.00
75521;BME280;64102;48.628;9.002;2024-03-02T05:54:00;94826.75;;;2.30;100.00
75521;BME280;64102;48.628;9.002;2024-03-02T05:56:25;94820.03;;;2.29;100.00
75521;BME280;64102;48.628;9.002;2024-03-02T05:58:51;94817.78;;;2.47;100.00
75521;BME280;64102;48.628;9.002;2024-03-02T06:01:35;94821.53;;;2.32;100.00
75521;BME280;64102;48.628;9.002;2024-03-02T06:04:00;94825.38;;;2.26;100.00
75521;BME280;64102;48.628;9.002;2024-03-02T06:06:25;94823.28;;;2.20;100.00
75521;BME280;64102;48.628;9.002;2024-03-02T06:08:51;94830.47;;;2.15;100.00
75521;BME280;64102;48.628;9.002;2024-03-02T06:11:19;94824.25;;;1.97;100.00
75521;BME280;64102;48.628;9.002;2024-03-02T06:13:44;94829.69;;;1.81;100.00
75521;BME280;64102;48.628;9.002;2024-03-02T06:16:10;94831.19;;;1.95;100.00
75521;BME280;64102;48.628;9.002;2024-03-02T06:18:35;94837.31;;;1.92;100.00
75521;BME280;64102;48.628;9.002;2024-03-02T06:21:00;94835.94;;;1.99;100.00
75521;BME280;64102;48.628;9.002;2024-03-02T06:23:26;94839.97;;;2.02;100.00
75521;BME280;64102;48.628;9.002;2024-03-02T06:25:52;94840.44;;;1.96;100.00
75521;BME280;64102;48.628;9.002;2024-03-02T06:28:17;94836.16;;;2.07;100.00
75521;BME280;64102;48.628;9.002;2024-03-02T06:30:42;94842.38;;;2.25;100.00
75521;BME280;64102;48.628;9.002;2024-03-02T06:33:09;94838.88;;;2.69;100.00
75521;BME280;64102;48.628;9.002;2024-03-02T06:35:34;94840.84;;;2.98;100.00
75521;BME280;64102;48.628;9.002;2024-03-02T06:38:00;94839.59;;;3.13;100.00
75521;BME280;64102;48.628;9.002;2024-03-02T06:40:25;94839.81;;;3.21;100.00
75521;BME280;64102;48.628;9.002;2024-03-02T06:42:51;94849.63;;;3.26;100.00
75521;BME280;64102;48.628;9.002;2024-03-02T06:45:16;94850.63;;;3.34;100.00
75521;BME280;64102;48.628;9.002;2024-03-02T06:47:41;94848.25;;;3.42;100.00
75521;BME280;64102;48.628;9.002;2024-03-02T06:50:07;94847.06;;;3.46;100.00
75521;BME280;64102;48.628;9.002;2024-03-02T06:52:33;94848.69;;;3.47;100.00
75521;BME280;64102;48.628;9.002;2024-03-02T06:54:58;94849.78;;;3.54;100.00
75521;BME280;64102;48.628;9.002;2024-03-02T06:57:23;94848.91;;;3.65;100.00
75521;BME280;64102;48.628;9.002;2024-03-02T06:59:50;94852.50;;;3.83;100.00
75521;BME280;64102;48.628;9.002;2024-03-02T07:02:16;94852.31;;;4.15;100.00
75521;BME280;64102;48.628;9.002;2024-03-02T07:04:42;94847.81;;;4.38;100.00
75521;BME280;64102;48.628;9.002;2024-03-02T07:07:07;94857.09;;;4.39;100.00
75521;BME280;64102;48.628;9.002;2024-03-02T07:09:32;94847.59;;;4.89;100.00
75521;BME280;64102;48.628;9.002;2024-03-02T07:11:58;94841.22;;;5.31;100.00
75521;BME280;64102;48.628;9.002;2024-03-02T07:14:23;94848.38;;;5.18;100.00
75521;BME280;64102;48.628;9.002;2024-03-02T07:17:08;94847.31;;;4.92;100.00
75521;BME280;64102;48.628;9.002;2024-03-02T07:19:35;94848.94;;;4.83;100.00
75521;BME280;64102;48.628;9.002;2024-03-02T07:22:00;94854.31;;;4.80;100.00
75521;BME280;64102;48.628;9.002;2024-03-02T07:24:26;94839.13;;;4.79;100.00
75521;BME280;64102;48.628;9.002;2024-03-02T07:26:51;94846.66;;;4.80;100.00
75521;BME280;64102;48.628;9.002;2024-03-02T07:29:17;94844.91;;;4.81;100.00
75521;BME280;64102;48.628;9.002;2024-03-02T07:31:42;94840.84;;;4.69;100.00
75521;BME280;64102;48.628;9.002;2024-03-02T07:34:07;94836.56;;;4.69;100.00
75521;BME280;64102;48.628;9.002;2024-03-02T07:36:33;94842.75;;;4.67;100.00
75521;BME280;64102;48.628;9.002;2024-03-02T07:38:58;94837.34;;;4.70;100.00
75521;BME280;64102;48.628;9.002;2024-03-02T07:41:24;94834.16;;;4.68;100.00
75521;BME280;64102;48.628;9.002;2024-03-02T07:43:49;94837.50;;;4.68;100.00
75521;BME280;64102;48.628;9.002;2024-03-02T07:46:14;94839.81;;;4.81;100.00
75521;BME280;64102;48.628;9.002;2024-03-02T07:48:42;94839.25;;;4.96;100.00
75521;BME280;64102;48.628;9.002;2024-03-02T07:51:08;94841.94;;;5.05;100.00
75521;BME280;64102;48.628;9.002;2024-03-02T07:53:33;94847.84;;;5.34;100.00
75521;BME280;64102;48.628;9.002;2024-03-02T07:55:58;94846.13;;;5.71;100.00
75521;BME280;64102;48.628;9.002;2024-03-02T07:58:27;94852.16;;;5.90;100.00
75521;BME280;64102;48.628;9.002;2024-03-02T08:00:53;94854.59;;;7.08;100.00
75521;BME280;64102;48.628;9.002;2024-03-02T08:03:18;94862.00;;;7.81;100.00
75521;BME280;64102;48.628;9.002;2024-03-02T08:05:44;94860.88;;;7.32;100.00
75521;BME280;64102;48.628;9.002;2024-03-02T08:08:09;94851.03;;;7.71;100.00
75521;BME280;64102;48.628;9.002;2024-03-02T08:10:35;94852.63;;;8.31;100.00
75521;BME280;64102;48.628;9.002;2024-03-02T08:13:01;94849.38;;;8.71;100.00
75521;BME280;64102;48.628;9.002;2024-03-02T08:15:26;94849.59;;;9.02;100.00
75521;BME280;64102;48.628;9.002;2024-03-02T08:17:51;94843.31;;;9.85;92.22
75521;BME280;64102;48.628;9.002;2024-03-02T08:20:17;94853.38;;;10.89;79.55
75521;BME280;64102;48.628;9.002;2024-03-02T08:22:44;94842.22;;;11.57;70.63
75521;BME280;64102;48.628;9.002;2024-03-02T08:25:10;94843.69;;;12.11;63.39
75521;BME280;64102;48.628;9.002;2024-03-02T08:27:35;94837.50;;;12.42;61.93
75521;BME280;64102;48.628;9.002;2024-03-02T08:30:01;94838.44;;;13.49;57.58
75521;BME280;64102;48.628;9.002;2024-03-02T08:32:28;94832.19;;;13.00;57.82
75521;BME280;64102;48.628;9.002;2024-03-02T08:34:54;94833.69;;;13.10;57.14
75521;BME280;64102;48.628;9.002;2024-03-02T08:37:20;94839.97;;;13.15;57.95
75521;BME280;64102;48.628;9.002;2024-03-02T08:39:45;94843.44;;;13.71;56.35
75521;BME280;64102;48.628;9.002;2024-03-02T08:42:10;94841.59;;;13.93;57.17
75521;BME280;64102;48.628;9.002;2024-03-02T08:44:36;94842.97;;;13.61;55.44
75521;BME280;64102;48.628;9.002;2024-03-02T08:47:02;94851.13;;;13.37;56.16
75521;BME280;64102;48.628;9.002;2024-03-02T08:49:27;94856.63;;;12.77;56.40
75521;BME280;64102;48.628;9.002;2024-03-02T08:51:52;94847.50;;;12.16;57.86
75521;BME280;64102;48.628;9.002;2024-03-02T08:54:23;94852.34;;;11.29;62.29
75521;BME280;64102;48.628;9.002;2024-03-02T08:56:49;94846.75;;;11.40;62.94
75521;BME280;64102;48.628;9.002;2024-03-02T08:59:15;94837.97;;;11.87;61.45
75521;BME280;64102;48.628;9.002;2024-03-02T09:01:41;94840.44;;;12.53;58.92
75521;BME280;64102;48.628;9.002;2024-03-02T09:04:07;94835.38;;;13.87;55.30
75521;BME280;64102;48.628;9.002;2024-03-02T09:06:34;94837.84;;;14.71;50.41
75521;BME280;64102;48.628;9.002;2024-03-02T09:08:59;94838.78;;;15.24;48.32
75521;BME280;64102;48.628;9.002;2024-03-02T09:11:24;94825.06;;;15.63;46.77
75521;BME280;64102;48.628;9.002;2024-03-02T09:13:50;94821.41;;;16.23;46.88
75521;BME280;64102;48.628;9.002;2024-03-02T09:16:16;94815.38;;;16.23;44.69
75521;BME280;64102;48.628;9.002;2024-03-02T09:18:41;94811.38;;;16.84;44.39
75521;BME280;64102;48.628;9.002;2024-03-02T09:21:07;94819.63;;;16.81;44.12
75521;BME280;64102;48.628;9.002;2024-03-02T09:23:33;94811.94;;;16.93;46.05
75521;BME280;64102;48.628;9.002;2024-03-02T09:25:59;94806.31;;;17.83;41.99
75521;BME280;64102;48.628;9.002;2024-03-02T09:28:24;94800.47;;;17.88;40.67
75521;BME280;64102;48.628;9.002;2024-03-02T09:30:50;94804.41;;;18.15;42.19
75521;BME280;64102;48.628;9.002;2024-03-02T09:33:15;94805.66;;;18.31;38.31
75521;BME280;64102;48.628;9.002;2024-03-02T09:35:40;94811.84;;;17.13;41.47
75521;BME280;64102;48.628;9.002;2024-03-02T09:38:06;94806.16;;;16.84;44.02
75521;BME280;64102;48.628;9.002;2024-03-02T09:40:31;94806.69;;;16.99;41.69
75521;BME280;64102;48.628;9.002;2024-03-02T09:42:57;94799.72;;;16.93;45.61
75521;BME280;64102;48.628;9.002;2024-03-02T09:45:23;94808.34;;;17.81;40.48
75521;BME280;64102;48.628;9.002;2024-03-02T09:47:49;94805.19;;;17.73;42.34
75521;BME280;64102;48.628;9.002;2024-03-02T09:50:15;94800.22;;;17.40;39.17
75521;BME280;64102;48.628;9.002;2024-03-02T10:02:46;94790.34;;;17.49;41.99
75521;BME280;64102;48.628;9.002;2024-03-02T10:05:23;94792.56;;;17.95;39.53
75521;BME280;64102;48.628;9.002;2024-03-02T10:07:59;94788.59;;;18.10;39.77
75521;BME280;64102;48.628;9.002;2024-03-02T10:10:37;94793.06;;;18.64;36.71
75521;BME280;64102;48.628;9.002;2024-03-02T10:13:05;94777.81;;;18.61;38.53
75521;BME280;64102;48.628;9.002;2024-03-02T10:15:31;94784.13;;;18.54;37.71
75521;BME280;64102;48.628;9.002;2024-03-02T10:17:59;94784.09;;;17.99;38.22
75521;BME280;64102;48.628;9.002;2024-03-02T10:20:25;94776.66;;;17.53;38.55
75521;BME280;64102;48.628;9.002;2024-03-02T10:22:53;94790.31;;;16.41;41.30
75521;BME280;64102;48.628;9.002;2024-03-02T10:25:29;94781.28;;;16.88;39.58
75521;BME280;64102;48.628;9.002;2024-03-02T10:28:01;94782.47;;;18.59;36.75
75521;BME280;64102;48.628;9.002;2024-03-02T10:30:27;94782.00;;;18.44;36.48
75521;BME280;64102;48.628;9.002;2024-03-02T10:32:54;94774.81;;;17.60;37.23
75521;BME280;64102;48.628;9.002;2024-03-02T10:35:21;94774.94;;;18.08;38.42
75521;BME280;64102;48.628;9.002;2024-03-02T10:37:48;94772.63;;;19.33;34.94
75521;BME280;64102;48.628;9.002;2024-03-02T10:40:14;94765.66;;;19.80;34.05
75521;BME280;64102;48.628;9.002;2024-03-02T10:42:41;94764.25;;;20.00;33.12
75521;BME280;64102;48.628;9.002;2024-03-02T10:45:11;94762.69;;;20.74;32.83
75521;BME280;64102;48.628;9.002;2024-03-02T10:47:38;94756.16;;;20.77;33.74
75521;BME280;64102;48.628;9.002;2024-03-02T10:50:07;94768.28;;;19.38;34.58
75521;BME280;64102;48.628;9.002;2024-03-02T10:52:39;94752.31;;;19.70;35.40
75521;BME280;64102;48.628;9.002;2024-03-02T10:55:06;94756.84;;;19.51;34.70
75521;BME280;64102;48.628;9.002;2024-03-02T10:57:45;94756.47;;;18.10;38.42
75521;BME280;64102;48.628;9.002;2024-03-02T11:00:15;94756.44;;;18.83;35.81
75521;BME280;64102;48.628;9.002;2024-03-02T11:02:50;94743.00;;;19.85;34.48
75521;BME280;64102;48.628;9.002;2024-03-02T11:05:27;94744.34;;;20.11;34.14
75521;BME280;64102;48.628;9.002;2024-03-02T11:08:00;94745.25;;;19.47;33.76
75521;BME280;64102;48.628;9.002;2024-03-02T11:10:51;94744.28;;;19.30;35.47
75521;BME280;64102;48.628;9.002;2024-03-02T11:13:22;94736.28;;;19.54;34.08
75521;BME280;64102;48.628;9.002;2024-03-02T11:15:52;94734.81;;;19.58;33.95
75521;BME280;64102;48.628;9.002;2024-03-02T11:18:19;94732.53;;;18.31;36.53
75521;BME280;64102;48.628;9.002;2024-03-02T11:20:45;94728.19;;;18.25;38.94
75521;BME280;64102;48.628;9.002;2024-03-02T11:23:11;94723.81;;;18.55;38.67
75521;BME280;64102;48.628;9.002;2024-03-02T11:25:37;94727.44;;;18.84;35.41
75521;BME280;64102;48.628;9.002;2024-03-02T11:28:07;94719.53;;;18.91;34.71
75521;BME280;64102;48.628;9.002;2024-03-02T11:33:04;94705.88;;;19.88;34.62
75521;BME280;64102;48.628;9.002;2024-03-02T11:35:42;94705.88;;;20.51;32.98
75521;BME280;64102;48.628;9.002;2024-03-02T11:38:09;94696.94;;;19.19;34.99
75521;BME280;64102;48.628;9.002;2024-03-02T11:40:35;94701.13;;;19.62;33.38
75521;BME280;64102;48.628;9.002;2024-03-02T11:43:00;94698.53;;;18.67;34.86
75521;BME280;64102;48.628;9.002;2024-03-02T11:45:27;94700.56;;;19.07;33.99
75521;BME280;64102;48.628;9.002;2024-03-02T11:47:57;94694.19;;;19.44;33.97
75521;BME280;64102;48.628;9.002;2024-03-02T11:50:57;94685.41;;;19.74;33.44
75521;BME280;64102;48.628;9.002;2024-03-02T11:53:23;94683.25;;;19.71;33.40
75521;BME280;64102;48.628;9.002;2024-03-02T11:55:49;94677.28;;;20.50;32.33
75521;BME280;64102;48.628;9.002;2024-03-02T11:58:17;94680.78;;;20.84;32.74
75521;BME280;64102;48.628;9.002;2024-03-02T12:00:43;94673.13;;;20.26;34.96
75521;BME280;64102;48.628;9.002;2024-03-02T12:03:09;94667.94;;;20.02;34.17
75521;BME280;64102;48.628;9.002;2024-03-02T12:05:37;94666.00;;;20.49;34.63
75521;BME280;64102;48.628;9.002;2024-03-02T12:08:04;94669.84;;;21.54;33.16
75521;BME280;64102;48.628;9.002;2024-03-02T12:10:30;94667.63;;;21.84;33.34
75521;BME280;64102;48.628;9.002;2024-03-02T12:13:06;94658.16;;;22.21;30.58
75521;BME280;64102;48.628;9.002;2024-03-02T12:15:38;94656.38;;;21.67;33.93
75521;BME280;64102;48.628;9.002;2024-03-02T12:18:04;94647.44;;;22.50;31.01
75521;BME280;64102;48.628;9.002;2024-03-02T12:20:31;94659.81;;;21.89;29.76
75521;BME280;64102;48.628;9.002;2024-03-02T12:23:02;94649.19;;;21.24;30.27
75521;BME280;64102;48.628;9.002;2024-03-02T12:25:27;94644.38;;;22.09;29.86
75521;BME280;64102;48.628;9.002;2024-03-02T12:27:58;94639.66;;;21.18;31.49
75521;BME280;64102;48.628;9.002;2024-03-02T12:30:27;94642.97;;;20.80;29.62
75521;BME280;64102;48.628;9.002;2024-03-02T12:32:54;94645.19;;;20.88;29.98
75521;BME280;64102;48.628;9.002;2024-03-02T12:35:19;94638.41;;;21.59;29.89
75521;BME280;64102;48.628;9.002;2024-03-02T12:37:50;94636.34;;;21.99;29.42
75521;BME280;64102;48.628;9.002;2024-03-02T12:40:17;94626.91;;;21.43;29.31
75521;BME280;64102;48.628;9.002;2024-03-02T12:42:44;94636.78;;;22.88;26.79
75521;BME280;64102;48.628;9.002;2024-03-02T12:45:10;94626.34;;;21.08;29.21
75521;BME280;64102;48.628;9.002;2024-03-02T12:47:36;94623.00;;;21.12;28.41
75521;BME280;64102;48.628;9.002;2024-03-02T12:50:04;94626.56;;;22.16;28.21
75521;BME280;64102;48.628;9.002;2024-03-02T12:52:30;94625.00;;;22.42;27.90
75521;BME280;64102;48.628;9.002;2024-03-02T12:54:58;94625.81;;;21.61;28.07
75521;BME280;64102;48.628;9.002;2024-03-02T12:57:28;94619.38;;;20.35;30.98
75521;BME280;64102;48.628;9.002;2024-03-02T13:00:01;94620.84;;;20.76;29.63
75521;BME280;64102;48.628;9.002;2024-03-02T13:02:34;94616.00;;;22.11;27.81
75521;BME280;64102;48.628;9.002;2024-03-02T13:05:00;94606.88;;;22.41;28.61
75521;BME280;64102;48.628;9.002;2024-03-02T13:07:25;94606.94;;;22.24;29.39
75521;BME280;64102;48.628;9.002;2024-03-02T13:09:51;94607.72;;;22.73;27.06
75521;BME280;64102;48.628;9.002;2024-03-02T13:12:19;94600.25;;;22.92;26.67